Time;durP1;ratioP1;P1;durP2;ratioP2;P2;SDS_P1;SDS_P2;PMS_P1;PMS_P2;Temp;Humidity;BMP_temperature;BMP_pressure;BME280_temperature;BME280_humidity;BME280_pressure;Samples;Min_cycle;Max_cycle;Signal;HPM_P1;HPM_P2
2022/04/11 00:00:38;;;;;;;22.92;11.10;;;;;;;4.31;74.81;101742.88;5047197;28;20045;-73
2022/04/11 00:03:03;;;;;;;24.80;11.90;;;;;;;4.32;75.45;101741.94;5040107;28;20021;-73
2022/04/11 00:05:28;;;;;;;22.50;11.32;;;;;;;4.31;75.15;101741.06;5052408;28;20059;-73
2022/04/11 00:07:53;;;;;;;25.90;11.68;;;;;;;4.30;74.41;101738.47;5054417;28;20074;-73
2022/04/11 00:10:19;;;;;;;24.55;10.90;;;;;;;4.31;73.37;101738.41;5052883;28;20067;-73
2022/04/11 00:12:44;;;;;;;23.73;12.07;;;;;;;4.32;75.09;101734.84;5033725;28;20041;-73
2022/04/11 00:15:10;;;;;;;26.35;11.98;;;;;;;4.34;74.26;101737.44;5035932;28;20025;-73
2022/04/11 00:17:36;;;;;;;26.50;12.55;;;;;;;4.35;73.97;101734.72;5068829;28;20028;-73
2022/04/11 00:20:05;;;;;;;25.30;12.55;;;;;;;4.36;73.63;101735.59;5039885;28;20861;-73
2022/04/11 00:22:33;;;;;;;23.95;11.75;;;;;;;4.38;73.01;101739.09;5049003;28;20126;-73
2022/04/11 00:24:58;;;;;;;31.00;13.43;;;;;;;4.40;73.10;101731.06;5054465;28;20405;-73
2022/04/11 00:27:24;;;;;;;26.40;12.40;;;;;;;4.43;74.19;101730.94;5040197;28;20033;-73
2022/04/11 00:29:49;;;;;;;27.77;12.15;;;;;;;4.44;73.69;101728.22;5033354;28;20036;-73
2022/04/11 00:32:14;;;;;;;31.73;12.82;;;;;;;4.45;72.50;101719.34;5047696;28;20087;-73
2022/04/11 00:34:39;;;;;;;28.33;13.85;;;;;;;4.46;72.84;101721.06;5054043;28;20017;-73
2022/04/11 00:37:05;;;;;;;27.63;13.95;;;;;;;4.48;73.48;101713.91;5042849;28;20072;-73
2022/04/11 00:39:30;;;;;;;26.83;12.02;;;;;;;4.51;75.00;101713.78;5032808;28;20028;-73
2022/04/11 00:41:55;;;;;;;28.30;14.15;;;;;;;4.53;73.56;101709.28;5042800;28;20400;-73
2022/04/11 00:44:21;;;;;;;30.00;14.00;;;;;;;4.55;73.57;101707.44;5051882;28;20037;-73
2022/04/11 00:46:46;;;;;;;32.55;14.13;;;;;;;4.57;72.14;101703.84;5061033;28;20484;-73
2022/04/11 00:49:11;;;;;;;29.17;14.27;;;;;;;4.62;72.50;101704.56;5058627;28;20032;-73
2022/04/11 00:51:37;;;;;;;31.83;13.80;;;;;;;4.66;72.28;101701.75;5041546;28;20087;-73
2022/04/11 00:54:03;;;;;;;32.00;14.13;;;;;;;4.69;71.11;101693.66;5042067;28;20476;-73
2022/04/11 00:56:29;;;;;;;27.65;13.55;;;;;;;4.73;70.38;101694.44;5050768;28;20500;-73
2022/04/11 00:58:55;;;;;;;26.13;13.43;;;;;;;4.76;70.93;101690.75;5052438;28;20025;-73
2022/04/11 01:01:21;;;;;;;30.15;13.32;;;;;;;4.81;69.83;101694.16;5041589;28;20130;-74
2022/04/11 01:03:46;;;;;;;35.95;13.77;;;;;;;4.84;68.46;101686.91;5052215;28;20431;-74
2022/04/11 01:06:11;;;;;;;32.92;14.73;;;;;;;4.87;68.83;101692.13;5036216;28;20400;-74
2022/04/11 01:08:37;;;;;;;29.42;13.00;;;;;;;4.91;69.14;101692.88;5053450;28;20032;-74
2022/04/11 01:11:03;;;;;;;26.55;13.82;;;;;;;4.92;68.83;101689.31;5051680;28;20468;-74
2022/04/11 01:13:29;;;;;;;27.08;12.85;;;;;;;4.93;68.26;101682.19;5033912;28;20037;-75
2022/04/11 01:15:56;;;;;;;27.13;12.57;;;;;;;4.95;67.83;101680.31;5034201;28;20022;-75
2022/04/11 01:18:22;;;;;;;33.20;12.25;;;;;;;4.96;70.79;101682.06;5041786;28;20029;-75
2022/04/11 01:20:47;;;;;;;27.60;13.48;;;;;;;4.96;69.18;101682.06;5034399;28;20032;-75
2022/04/11 01:23:13;;;;;;;31.50;13.07;;;;;;;4.97;69.86;101683.81;5039750;28;20059;-75
2022/04/11 01:25:39;;;;;;;28.73;13.98;;;;;;;4.97;70.78;101675.81;5049574;28;20025;-75
2022/04/11 01:28:05;;;;;;;25.25;11.77;;;;;;;4.96;70.85;101676.72;5053233;28;20031;-75
2022/04/11 01:30:30;;;;;;;31.73;14.02;;;;;;;4.95;70.12;101680.31;5050598;28;20033;-75
2022/04/11 01:32:56;;;;;;;27.90;12.93;;;;;;;4.94;70.79;101686.59;5051255;28;20162;-75
2022/04/11 01:35:24;;;;;;;32.47;14.05;;;;;;;4.90;69.26;101688.47;5052337;28;20029;-75
2022/04/11 01:37:49;;;;;;;32.53;13.38;;;;;;;4.87;69.37;101684.13;5051206;28;20068;-75
2022/04/11 01:40:15;;;;;;;29.70;12.68;;;;;;;4.83;69.68;101682.53;5051739;28;20649;-75
2022/04/11 01:42:42;;;;;;;36.60;14.10;;;;;;;4.80;72.66;101682.63;5044341;28;20024;-75
2022/04/11 01:45:10;;;;;;;27.75;12.40;;;;;;;4.77;71.87;101688.03;5033279;28;20051;-74
2022/04/11 01:47:36;;;;;;;28.50;13.10;;;;;;;4.73;72.10;101689.09;5065556;28;20032;-74
2022/04/11 01:50:01;;;;;;;26.55;11.82;;;;;;;4.66;72.40;101688.44;5047772;28;20120;-74
2022/04/11 01:52:26;;;;;;;24.73;12.40;;;;;;;4.65;73.19;101685.81;5051572;28;20495;-75
2022/04/11 01:54:52;;;;;;;33.05;14.35;;;;;;;4.62;73.81;101683.28;5050517;28;20029;-75
2022/04/11 01:57:17;;;;;;;27.92;12.35;;;;;;;4.57;73.84;101679.88;5051296;28;20024;-75
2022/04/11 01:59:42;;;;;;;29.25;13.13;;;;;;;4.53;73.04;101680.00;5049704;28;20036;-75
2022/04/11 02:02:07;;;;;;;26.10;12.88;;;;;;;4.50;74.21;101679.25;5048969;28;20036;-75
2022/04/11 02:04:33;;;;;;;29.85;13.52;;;;;;;4.47;74.66;101674.88;5049831;28;20042;-75
2022/04/11 02:06:58;;;;;;;27.75;14.10;;;;;;;4.42;73.21;101679.50;5051022;28;20039;-74
2022/04/11 02:09:23;;;;;;;31.38;13.13;;;;;;;4.39;73.86;101676.94;5045142;28;20033;-74
2022/04/11 02:11:48;;;;;;;30.50;13.32;;;;;;;4.34;73.29;101669.13;5031143;28;20120;-74
2022/04/11 02:14:14;;;;;;;27.10;13.32;;;;;;;4.32;74.53;101670.06;5033311;28;20033;-74
2022/04/11 02:16:39;;;;;;;25.20;11.95;;;;;;;4.30;74.38;101672.78;5057342;28;20496;-74
2022/04/11 02:19:04;;;;;;;27.17;12.50;;;;;;;4.27;74.42;101672.03;5067412;28;20107;-74
2022/04/11 02:21:29;;;;;;;27.58;12.85;;;;;;;4.24;74.53;101669.50;5032361;28;20075;-74
2022/04/11 02:23:55;;;;;;;26.02;12.65;;;;;;;4.21;73.01;101670.44;5039634;28;20033;-74
2022/04/11 02:26:20;;;;;;;24.98;12.25;;;;;;;4.18;72.95;101674.06;5051119;28;20041;-74
2022/04/11 02:28:45;;;;;;;24.63;12.40;;;;;;;4.15;74.31;101673.31;5034733;28;20102;-74
2022/04/11 02:31:11;;;;;;;25.08;11.68;;;;;;;4.12;74.08;101673.44;5045074;28;20512;-74
2022/04/11 02:33:36;;;;;;;26.33;12.23;;;;;;;4.07;74.35;101676.25;5041561;28;20196;-74
2022/04/11 02:36:01;;;;;;;26.35;12.68;;;;;;;4.02;75.20;101676.38;5044021;28;20039;-74
2022/04/11 02:38:26;;;;;;;29.08;13.40;;;;;;;3.99;74.63;101675.63;5050994;28;20037;-74
2022/04/11 02:40:52;;;;;;;29.10;13.35;;;;;;;3.94;74.82;101673.09;5050246;28;20029;-74
2022/04/11 02:43:17;;;;;;;25.58;12.05;;;;;;;3.92;75.65;101679.38;5040523;28;20189;-74
2022/04/11 02:45:42;;;;;;;25.10;12.57;;;;;;;3.87;75.45;101676.03;5030254;28;20033;-74
2022/04/11 02:48:08;;;;;;;28.38;12.95;;;;;;;3.81;75.46;101674.44;5046450;28;20404;-74
2022/04/11 02:50:33;;;;;;;27.10;13.88;;;;;;;3.74;75.91;101678.19;5049740;28;20037;-74
2022/04/11 02:52:58;;;;;;;29.15;13.18;;;;;;;3.70;75.67;101680.06;5049109;28;20033;-74
2022/04/11 02:55:24;;;;;;;27.02;13.13;;;;;;;3.66;75.88;101675.75;5050802;28;20396;-74
2022/04/11 02:57:49;;;;;;;24.08;13.13;;;;;;;3.62;76.18;101674.13;5050240;28;20199;-75
2022/04/11 03:00:15;;;;;;;26.52;12.13;;;;;;;3.59;76.23;101674.22;5044637;28;20393;-75
2022/04/11 03:02:40;;;;;;;30.23;14.38;;;;;;;3.53;76.70;101669.06;5039648;28;20104;-75
2022/04/11 03:05:06;;;;;;;26.42;12.73;;;;;;;3.48;76.26;101667.47;5048802;28;20064;-74
2022/04/11 03:07:31;;;;;;;25.63;12.45;;;;;;;3.40;76.63;101658.84;5029915;28;20037;-74
2022/04/11 03:09:57;;;;;;;28.55;13.40;;;;;;;3.32;76.51;101656.41;5037238;28;20128;-74
2022/04/11 03:12:25;;;;;;;24.83;13.07;;;;;;;3.27;76.37;101654.81;5046802;28;20481;-74
2022/04/11 03:14:50;;;;;;;24.55;12.38;;;;;;;3.21;76.90;101662.97;5033233;28;20075;-74
2022/04/11 03:17:16;;;;;;;24.88;11.20;;;;;;;3.18;77.23;101655.97;5058805;28;20037;-74
2022/04/11 03:19:42;;;;;;;28.33;12.95;;;;;;;3.17;76.95;101656.84;5031403;28;20386;-74
2022/04/11 03:22:09;;;;;;;28.88;12.85;;;;;;;3.14;76.33;101662.25;5041621;28;20756;-74
2022/04/11 03:24:34;;;;;;;24.42;12.50;;;;;;;3.11;76.95;101657.03;5048746;28;20040;-74
2022/04/11 03:26:59;;;;;;;23.88;10.88;;;;;;;3.08;77.05;101657.13;5029684;28;20041;-74
2022/04/11 03:29:24;;;;;;;24.63;11.18;;;;;;;3.05;76.61;101657.22;5030230;28;20033;-74
2022/04/11 03:31:49;;;;;;;24.30;11.15;;;;;;;3.01;77.45;101661.75;5033785;28;20099;-74
2022/04/11 03:34:15;;;;;;;24.08;12.70;;;;;;;3.01;76.28;101664.41;5051105;28;20598;-74
2022/04/11 03:36:40;;;;;;;23.95;12.35;;;;;;;2.99;76.08;101658.28;5048414;28;20416;-74
2022/04/11 03:39:05;;;;;;;23.75;11.73;;;;;;;2.97;76.38;101660.97;5051218;28;20039;-74
2022/04/11 03:41:31;;;;;;;24.20;12.60;;;;;;;2.96;76.30;101664.53;5041442;28;20041;-74
2022/04/11 03:43:56;;;;;;;22.58;10.90;;;;;;;2.92;77.59;101656.72;5041011;28;20469;-74
2022/04/11 03:46:21;;;;;;;23.92;12.73;;;;;;;2.90;76.31;101659.41;5057538;28;20115;-74
2022/04/11 03:48:47;;;;;;;23.63;12.00;;;;;;;2.86;75.32;101663.06;5048297;28;20032;-74
2022/04/11 03:51:12;;;;;;;22.52;11.40;;;;;;;2.84;76.79;101669.31;5053468;28;20032;-74
2022/04/11 03:53:37;;;;;;;25.05;11.88;;;;;;;2.76;78.05;101665.09;5038048;28;20436;-74
2022/04/11 03:56:03;;;;;;;24.45;12.45;;;;;;;2.69;78.05;101665.31;5033636;28;20037;-74
2022/04/11 03:58:28;;;;;;;23.35;11.10;;;;;;;2.63;78.11;101671.66;5049229;28;20027;-74
2022/04/11 04:00:53;;;;;;;24.63;12.50;;;;;;;2.62;78.03;101672.53;5048908;28;20040;-74
2022/04/11 04:03:18;;;;;;;22.58;11.27;;;;;;;2.60;77.48;101669.06;5039076;28;20508;-74
2022/04/11 04:05:46;;;;;;;24.40;10.82;;;;;;;2.56;78.46;101665.66;5035187;28;20377;-74
2022/04/11 04:08:12;;;;;;;31.38;12.88;;;;;;;2.53;77.51;101664.84;5033733;28;20033;-74
2022/04/11 04:10:40;;;;;;;24.58;11.18;;;;;;;2.52;78.52;101669.28;5039406;28;20052;-74
2022/04/11 04:13:06;;;;;;;23.70;11.50;;;;;;;2.50;78.04;101664.94;5034507;28;20053;-74
2022/04/11 04:15:31;;;;;;;25.08;11.50;;;;;;;2.48;78.37;101658.81;5035746;28;20550;-74
2022/04/11 04:17:56;;;;;;;24.23;12.20;;;;;;;2.44;77.86;101656.19;5069934;28;20043;-74
2022/04/11 04:20:25;;;;;;;26.38;11.93;;;;;;;2.42;78.32;101658.03;5066498;28;20032;-74
2022/04/11 04:22:51;;;;;;;24.37;11.87;;;;;;;2.41;77.65;101658.94;5048851;28;20040;-75
2022/04/11 04:25:16;;;;;;;24.15;12.73;;;;;;;2.37;79.46;101659.06;5039687;28;20469;-75
2022/04/11 04:27:42;;;;;;;26.33;12.80;;;;;;;2.34;78.50;101665.31;5054485;28;20469;-75
2022/04/11 04:30:08;;;;;;;24.20;12.40;;;;;;;2.32;79.01;101660.97;5037415;28;20450;-75
2022/04/11 04:32:33;;;;;;;25.10;13.93;;;;;;;2.27;79.70;101653.16;5050434;28;20025;-75
2022/04/11 04:34:59;;;;;;;23.42;11.70;;;;;;;2.23;78.89;101649.69;5053069;28;20653;-75
2022/04/11 04:37:24;;;;;;;23.73;12.40;;;;;;;2.20;77.92;101652.41;5041364;28;20033;-75
2022/04/11 04:39:49;;;;;;;24.00;12.07;;;;;;;2.21;78.17;101653.28;5038825;28;20061;-75
2022/04/11 04:42:21;;;;;;;26.40;12.25;;;;;;;2.20;78.95;101655.06;5042452;28;20469;-75
2022/04/11 04:44:47;;;;;;;25.77;11.43;;;;;;;2.19;78.25;101644.50;5043607;28;20051;-75
2022/04/11 04:47:12;;;;;;;24.17;12.18;;;;;;;2.21;78.71;101648.88;5047560;28;20045;-75
2022/04/11 04:49:37;;;;;;;24.88;11.50;;;;;;;2.22;78.08;101647.06;5052286;28;20542;-75
2022/04/11 04:52:03;;;;;;;26.75;11.85;;;;;;;2.23;78.67;101652.34;5033073;28;20018;-75
2022/04/11 04:54:28;;;;;;;24.27;12.98;;;;;;;2.23;78.66;101644.38;5030467;28;20037;-75
2022/04/11 04:56:53;;;;;;;24.50;12.68;;;;;;;2.24;79.54;101648.78;5034135;28;20034;-74
2022/04/11 04:59:19;;;;;;;25.50;12.93;;;;;;;2.24;78.99;101645.25;5033923;28;20040;-74
2022/04/11 05:01:44;;;;;;;24.08;12.30;;;;;;;2.24;78.72;101651.44;5036451;28;20025;-74
2022/04/11 05:04:09;;;;;;;23.88;12.15;;;;;;;2.25;78.72;101645.19;5037553;28;20033;-74
2022/04/11 05:06:34;;;;;;;27.92;12.27;;;;;;;2.27;78.87;101637.22;5025950;28;20037;-74
2022/04/11 05:09:00;;;;;;;23.58;11.80;;;;;;;2.26;78.22;101639.00;5035697;28;20452;-74
2022/04/11 05:11:25;;;;;;;25.85;13.23;;;;;;;2.29;78.63;101638.06;5034900;28;20079;-74
2022/04/11 05:13:51;;;;;;;23.75;12.43;;;;;;;2.32;78.91;101634.47;5035993;28;20459;-74
2022/04/11 05:16:18;;;;;;;22.55;11.70;;;;;;;2.34;78.06;101632.63;5034075;28;20953;-74
2022/04/11 05:18:44;;;;;;;22.67;11.52;;;;;;;2.35;78.47;101635.22;5034985;28;20052;-74
2022/04/11 05:21:09;;;;;;;24.08;11.90;;;;;;;2.39;79.07;101628.94;5035845;28;20060;-74
2022/04/11 05:23:35;;;;;;;23.27;12.73;;;;;;;2.41;79.28;101635.06;5035729;28;20033;-75
2022/04/11 05:26:00;;;;;;;26.95;13.25;;;;;;;2.44;78.85;101634.13;5035156;28;20496;-74
2022/04/11 05:28:25;;;;;;;25.48;12.07;;;;;;;2.44;78.81;101621.72;5036432;28;20037;-73
2022/04/11 05:30:51;;;;;;;24.85;12.32;;;;;;;2.48;78.87;101625.16;5032449;28;20129;-73
2022/04/11 05:33:16;;;;;;;23.23;11.98;;;;;;;2.54;78.64;101627.66;5046378;28;20036;-73
2022/04/11 05:35:41;;;;;;;23.98;12.63;;;;;;;2.62;78.20;101628.31;5051527;28;20036;-73
2022/04/11 05:38:07;;;;;;;24.08;11.45;;;;;;;2.72;79.02;101628.91;5053008;28;20029;-73
2022/04/11 05:40:33;;;;;;;29.30;13.18;;;;;;;2.78;78.21;101620.81;5048684;28;20036;-73
2022/04/11 05:42:58;;;;;;;28.02;12.50;;;;;;;2.87;77.80;101632.94;5052843;28;20024;-73
2022/04/11 05:45:23;;;;;;;25.77;12.35;;;;;;;2.95;77.68;101630.06;5035164;28;20030;-73
2022/04/11 05:47:49;;;;;;;25.65;13.32;;;;;;;3.05;77.20;101622.72;5057260;28;20033;-73
2022/04/11 05:50:14;;;;;;;25.30;13.15;;;;;;;3.11;75.70;101626.03;5041347;28;20404;-73
2022/04/11 05:52:39;;;;;;;25.75;11.40;;;;;;;3.21;75.61;101625.78;5036260;28;20499;-76
2022/04/11 05:55:05;;;;;;;28.42;13.52;;;;;;;3.27;76.22;101631.75;5042861;28;20021;-73
2022/04/11 05:57:30;;;;;;;24.73;11.82;;;;;;;3.36;75.69;101630.59;5040482;28;20169;-73
2022/04/11 05:59:55;;;;;;;23.17;11.82;;;;;;;3.45;75.19;101627.66;5032733;28;20044;-75
2022/04/11 06:02:21;;;;;;;24.75;12.23;;;;;;;3.55;74.60;101624.75;5035378;28;20049;-74
2022/04/11 06:04:46;;;;;;;22.88;11.82;;;;;;;3.64;74.81;101619.13;5044218;28;20033;-74
2022/04/11 06:07:11;;;;;;;23.63;11.70;;;;;;;3.75;74.19;101621.41;5050554;28;20120;-75
2022/04/11 06:09:37;;;;;;;23.02;11.63;;;;;;;3.82;73.62;101623.84;5056174;28;20063;-72
2022/04/11 06:12:02;;;;;;;25.98;13.43;;;;;;;3.93;73.60;101622.63;5054254;28;20033;-75
2022/04/11 06:14:28;;;;;;;22.42;12.05;;;;;;;4.00;72.95;101624.16;5046344;28;20392;-76
2022/04/11 06:16:53;;;;;;;25.48;11.38;;;;;;;4.08;73.43;101623.91;5058280;28;20035;-75
2022/04/11 06:19:18;;;;;;;27.08;12.43;;;;;;;4.15;72.96;101623.63;5055442;28;20098;-76
2022/04/11 06:21:43;;;;;;;22.65;13.07;;;;;;;4.25;72.60;101628.66;5051119;28;20032;-74
2022/04/11 06:24:09;;;;;;;25.77;11.85;;;;;;;4.34;72.18;101637.19;5045738;28;20406;-77
2022/04/11 06:26:34;;;;;;;22.73;11.07;;;;;;;4.42;71.67;101618.28;5042549;28;20103;-74
2022/04/11 06:29:00;;;;;;;27.70;12.45;;;;;;;4.50;71.47;101621.53;5042075;28;20033;-74
2022/04/11 06:31:25;;;;;;;24.10;12.00;;;;;;;4.60;71.01;101621.19;5049990;28;20061;-74
2022/04/11 06:33:50;;;;;;;25.33;12.07;;;;;;;4.69;70.95;101623.56;5064385;28;20036;-74
2022/04/11 06:36:15;;;;;;;24.17;12.80;;;;;;;4.77;71.43;101621.47;5055137;28;20029;-74
2022/04/11 06:38:41;;;;;;;25.65;11.13;;;;;;;4.85;70.50;101630.06;5046416;28;20044;-74
2022/04/11 06:41:06;;;;;;;21.50;10.82;;;;;;;4.93;70.26;101628.91;5040008;28;20496;-74
2022/04/11 06:43:31;;;;;;;24.48;11.32;;;;;;;5.00;69.74;101619.75;5041215;28;20029;-74
2022/04/11 06:45:57;;;;;;;22.50;10.57;;;;;;;5.07;69.50;101621.25;5049210;28;20087;-74
2022/04/11 06:48:22;;;;;;;23.15;10.90;;;;;;;5.15;69.42;101623.63;5049089;28;20511;-74
2022/04/11 06:50:47;;;;;;;25.67;11.80;;;;;;;5.20;68.78;101621.66;5048906;28;20465;-74
2022/04/11 06:53:16;;;;;;;22.23;10.13;;;;;;;5.32;68.14;101631.00;5045521;28;20388;-74
2022/04/11 06:55:43;;;;;;;24.17;10.73;;;;;;;5.38;68.02;101630.75;5047017;28;20033;-74
2022/04/11 06:58:08;;;;;;;23.50;10.63;;;;;;;5.46;67.93;101628.66;5043460;28;20081;-74
2022/04/11 07:00:34;;;;;;;28.58;10.65;;;;;;;5.54;67.50;101631.00;5051058;28;20037;-73
2022/04/11 07:02:59;;;;;;;21.33;10.15;;;;;;;5.63;67.23;101635.13;5043520;28;20412;-75
2022/04/11 07:05:24;;;;;;;21.80;10.02;;;;;;;5.73;66.03;101641.81;5049543;28;20025;-74
2022/04/11 07:07:49;;;;;;;23.73;10.88;;;;;;;5.83;65.67;101640.50;5040391;28;20067;-74
2022/04/11 07:10:15;;;;;;;23.70;11.43;;;;;;;5.90;65.63;101636.66;5046255;28;20049;-75
2022/04/11 07:12:41;;;;;;;22.80;9.15;;;;;;;5.98;65.89;101646.19;5050736;28;20037;-75
2022/04/11 07:15:08;;;;;;;20.00;9.50;;;;;;;6.03;65.82;101633.50;5051847;28;20040;-74
2022/04/11 07:17:33;;;;;;;27.67;10.93;;;;;;;6.09;64.90;101628.78;5054930;28;20052;-74
2022/04/11 07:19:58;;;;;;;22.40;9.43;;;;;;;6.16;65.15;101624.03;5045816;28;20041;-74
2022/04/11 07:22:24;;;;;;;20.48;8.48;;;;;;;6.26;64.92;101619.19;5042489;28;20028;-75
2022/04/11 07:24:49;;;;;;;20.35;8.65;;;;;;;6.33;64.51;101615.34;5041287;28;20020;-75
2022/04/11 07:27:14;;;;;;;22.33;8.95;;;;;;;6.46;64.62;101605.84;5053257;28;20506;-75
2022/04/11 07:29:40;;;;;;;22.88;8.70;;;;;;;6.61;64.63;101614.13;5039262;28;20800;-75
2022/04/11 07:32:05;;;;;;;21.20;7.95;;;;;;;6.71;61.53;101603.91;5042305;28;20065;-75
2022/04/11 07:34:30;;;;;;;19.75;7.82;;;;;;;6.79;61.92;101607.97;5041182;28;20024;-75
2022/04/11 07:36:56;;;;;;;19.95;8.00;;;;;;;6.89;62.24;101602.19;5046251;28;20365;-75
2022/04/11 07:39:23;;;;;;;19.75;6.40;;;;;;;6.97;62.25;101600.91;5042188;28;20060;-75
2022/04/11 07:41:49;;;;;;;21.52;7.55;;;;;;;7.08;60.53;101600.38;5042716;28;20025;-75
2022/04/11 07:44:14;;;;;;;19.85;7.05;;;;;;;7.18;60.39;101592.81;5045995;28;20040;-75
2022/04/11 07:46:39;;;;;;;19.73;6.78;;;;;;;7.28;60.56;101604.81;5052176;28;20386;-75
2022/04/11 07:49:05;;;;;;;17.77;6.32;;;;;;;7.34;60.02;101596.50;5043428;28;20040;-75
2022/04/11 07:51:30;;;;;;;21.13;6.90;;;;;;;7.41;60.04;101593.50;5039708;28;20643;-75
2022/04/11 07:53:55;;;;;;;20.33;6.45;;;;;;;7.51;60.15;101590.34;5042548;28;20033;-75
2022/04/11 07:56:20;;;;;;;17.70;6.57;;;;;;;7.59;59.85;101584.63;5044900;28;20094;-75
2022/04/11 07:58:46;;;;;;;19.90;6.93;;;;;;;7.67;58.56;101584.22;5044588;28;20484;-75
2022/04/11 08:01:16;;;;;;;20.48;7.07;;;;;;;7.76;59.06;101577.56;5042470;28;20049;-75
2022/04/11 08:03:44;;;;;;;18.92;6.03;;;;;;;7.88;58.91;101580.50;5043274;28;20105;-75
2022/04/11 08:06:09;;;;;;;19.63;7.43;;;;;;;7.96;59.07;101577.41;5047625;28;20389;-75
2022/04/11 08:08:34;;;;;;;20.45;6.85;;;;;;;8.04;57.57;101579.72;5040872;28;20037;-75
2022/04/11 08:11:00;;;;;;;16.95;6.35;;;;;;;8.14;56.62;101572.94;5042940;28;20052;-74
2022/04/11 08:13:25;;;;;;;18.80;6.20;;;;;;;8.25;55.93;101568.84;5050302;28;20041;-73
2022/04/11 08:15:50;;;;;;;19.70;7.70;;;;;;;8.28;56.51;101564.19;5045885;28;20408;-74
2022/04/11 08:18:15;;;;;;;17.13;6.18;;;;;;;8.35;55.74;101565.59;5050168;28;20039;-74
2022/04/11 08:20:41;;;;;;;20.17;6.35;;;;;;;8.39;56.28;101560.97;5043793;28;20039;-74
2022/04/11 08:23:06;;;;;;;20.55;6.85;;;;;;;8.43;56.79;101562.50;5045352;28;20103;-74
2022/04/11 08:25:31;;;;;;;17.55;6.35;;;;;;;8.46;55.56;101561.53;5050297;28;20047;-74
2022/04/11 08:27:56;;;;;;;18.40;6.53;;;;;;;8.54;55.36;101553.97;5066651;28;20575;-74
2022/04/11 08:30:22;;;;;;;19.25;6.72;;;;;;;8.63;55.60;101557.97;5048161;28;20044;-74
2022/04/11 08:32:49;;;;;;;17.05;6.60;;;;;;;8.67;57.51;101554.16;5051252;28;20021;-74
2022/04/11 08:35:15;;;;;;;20.50;6.63;;;;;;;8.72;55.64;101552.94;5048790;28;20044;-74
2022/04/11 08:37:41;;;;;;;19.65;6.53;;;;;;;8.78;54.86;101548.22;5054538;28;20033;-74
2022/04/11 08:40:10;;;;;;;17.23;6.05;;;;;;;8.84;56.06;101554.09;5049258;28;20496;-74
2022/04/11 08:42:36;;;;;;;16.93;5.97;;;;;;;8.93;53.89;101550.03;5050230;28;20036;-74
2022/04/11 08:45:02;;;;;;;16.92;6.32;;;;;;;9.01;53.46;101546.94;5049184;28;20115;-74
2022/04/11 08:47:27;;;;;;;18.77;5.88;;;;;;;9.10;55.06;101552.66;5045731;28;20484;-74
2022/04/11 08:49:55;;;;;;;16.25;5.45;;;;;;;9.18;54.40;101546.00;5045319;28;20396;-75
2022/04/11 08:52:21;;;;;;;20.23;6.03;;;;;;;9.26;53.13;101554.47;5048005;28;20430;-75
2022/04/11 08:54:46;;;;;;;17.63;5.93;;;;;;;9.34;53.44;101546.88;5048665;28;20060;-74
2022/04/11 08:57:11;;;;;;;14.65;5.32;;;;;;;9.44;52.96;101548.09;5051722;28;20384;-74
2022/04/11 08:59:37;;;;;;;18.27;5.90;;;;;;;9.49;51.86;101547.81;5059227;28;20028;-74
2022/04/11 09:02:10;;;;;;;15.90;4.72;;;;;;;9.54;52.42;101556.44;5059963;28;20457;-74
2022/04/11 09:04:55;;;;;;;14.77;4.45;;;;;;;9.59;52.43;101556.16;5039617;28;20067;-74
2022/04/11 09:07:21;;;;;;;18.50;5.13;;;;;;;9.67;51.70;101553.91;5052475;28;20035;-74
2022/04/11 09:09:47;;;;;;;11.00;3.85;;;;;;;9.75;51.44;101554.34;5048291;28;20060;-74
2022/04/11 09:12:14;;;;;;;11.85;4.07;;;;;;;9.80;51.26;101554.06;5049986;28;20032;-75
2022/04/11 09:14:40;;;;;;;14.45;5.05;;;;;;;9.89;51.58;101555.34;5048177;28;20111;-75
2022/04/11 09:17:06;;;;;;;13.38;4.53;;;;;;;9.91;50.02;101548.06;5051260;28;20095;-75
2022/04/11 09:19:31;;;;;;;16.02;4.60;;;;;;;9.95;50.22;101544.25;5047570;28;20036;-75
2022/04/11 09:21:57;;;;;;;15.00;5.07;;;;;;;10.00;49.18;101542.16;5047708;28;20143;-75
2022/04/11 09:24:25;;;;;;;15.07;4.80;;;;;;;10.06;49.51;101536.41;5047046;28;20488;-75
2022/04/11 09:26:54;;;;;;;14.70;5.28;;;;;;;10.15;50.62;101524.25;5048392;28;20079;-75
2022/04/11 09:29:20;;;;;;;15.93;4.63;;;;;;;10.18;49.01;101517.84;5047286;28;20555;-75
2022/04/11 09:31:45;;;;;;;12.35;4.32;;;;;;;10.21;50.04;101506.91;5045119;28;20056;-75
2022/04/11 09:34:24;;;;;;;11.93;4.10;;;;;;;10.21;47.49;101505.06;5044657;28;20033;-75
2022/04/11 09:36:58;;;;;;;13.50;4.10;;;;;;;10.27;48.35;101506.50;5044539;28;20069;-75
2022/04/11 09:39:32;;;;;;;17.45;4.70;;;;;;;10.34;47.73;101515.97;5041547;28;20040;-75
2022/04/11 09:41:58;;;;;;;12.43;4.47;;;;;;;10.40;47.79;101509.34;5057823;28;20031;-75
2022/04/11 09:44:28;;;;;;;12.80;4.97;;;;;;;10.48;48.16;101505.22;5066016;28;20028;-74
2022/04/11 09:47:02;;;;;;;11.85;4.53;;;;;;;10.49;46.33;101501.56;5046359;28;20051;-74
2022/04/11 09:49:28;;;;;;;13.45;4.65;;;;;;;10.60;47.81;101502.69;5051016;28;20112;-75
2022/04/11 09:52:07;;;;;;;14.05;4.55;;;;;;;10.57;47.54;101498.41;5049051;28;20445;-76
2022/04/11 09:54:35;;;;;;;11.30;4.07;;;;;;;10.64;45.81;101490.81;5044995;28;20029;-77
2022/04/11 09:57:01;;;;;;;12.95;4.13;;;;;;;10.72;44.55;101485.81;5045155;28;20029;-75
2022/04/11 09:59:27;;;;;;;14.55;4.38;;;;;;;10.81;46.39;101493.28;5042884;28;20128;-75
2022/04/11 10:01:54;;;;;;;13.15;4.00;;;;;;;10.87;45.40;101481.28;5047600;28;20111;-75
2022/04/11 10:04:20;;;;;;;12.85;4.60;;;;;;;10.96;46.18;101477.13;5041690;28;20033;-73
2022/04/11 10:06:46;;;;;;;13.40;4.15;;;;;;;11.00;44.71;101484.03;5053387;28;20087;-74
2022/04/11 10:09:15;;;;;;;12.73;3.85;;;;;;;11.04;42.86;101477.50;5046515;28;20040;-74
2022/04/11 10:11:44;;;;;;;13.65;4.30;;;;;;;11.11;44.15;101489.59;5044057;28;20032;-75
2022/04/11 10:14:11;;;;;;;15.52;4.55;;;;;;;11.19;43.59;101483.69;5067257;28;20017;-75
2022/04/11 10:16:43;;;;;;;13.55;4.57;;;;;;;11.22;44.92;101482.66;5058019;28;20073;-75
2022/04/11 10:19:13;;;;;;;15.82;4.90;;;;;;;11.31;45.14;101476.63;5051715;28;20080;-76
2022/04/11 10:21:44;;;;;;;12.00;3.65;;;;;;;11.37;45.05;101470.84;5047205;28;20017;-78
2022/04/11 10:24:33;;;;;;;14.35;4.43;;;;;;;11.37;45.74;101471.69;5044050;28;20797;-77
2022/04/11 10:27:20;;;;;;;10.55;4.03;;;;;;;11.45;44.52;101473.91;5047979;28;20388;-77
2022/04/11 10:29:49;;;;;;;12.85;4.32;;;;;;;11.52;42.48;101468.94;5043279;28;20033;-75
2022/04/11 10:32:18;;;;;;;15.00;5.05;;;;;;;11.58;43.56;101465.88;5046640;28;20052;-74
2022/04/11 10:34:45;;;;;;;13.63;5.15;;;;;;;11.66;44.73;101473.41;5053216;28;20091;-76
2022/04/11 10:37:11;;;;;;;13.23;4.80;;;;;;;11.70;44.79;101466.84;5045125;28;20468;-77
2022/04/11 10:39:37;;;;;;;14.77;5.30;;;;;;;11.68;45.45;101458.00;5050368;28;20036;-76
2022/04/11 10:42:05;;;;;;;15.18;4.78;;;;;;;11.67;46.24;101464.34;5053016;28;20025;-77
2022/04/11 10:44:45;;;;;;;13.35;5.15;;;;;;;11.72;45.67;101464.91;5042245;28;20033;-78
2022/04/11 10:47:14;;;;;;;12.63;4.68;;;;;;;11.68;46.86;101453.50;5053966;28;20056;-77
2022/04/11 10:49:48;;;;;;;13.30;4.82;;;;;;;11.72;44.09;101448.75;5045432;28;20037;-77
2022/04/11 10:52:36;;;;;;;15.40;4.80;;;;;;;11.79;45.89;101438.44;5044358;28;20025;-77
2022/04/11 10:55:06;;;;;;;14.68;5.10;;;;;;;11.83;46.89;101443.50;5054726;28;20082;-77
2022/04/11 10:57:33;;;;;;;16.92;4.90;;;;;;;11.87;44.56;101441.44;5048197;28;20025;-77
2022/04/11 11:00:01;;;;;;;16.38;5.68;;;;;;;11.91;44.28;101434.88;5046989;28;20048;-77
2022/04/11 11:02:26;;;;;;;12.65;4.75;;;;;;;11.94;43.46;101432.00;5045912;28;20052;-77
2022/04/11 11:04:52;;;;;;;15.13;5.35;;;;;;;11.93;44.09;101421.31;5045450;28;20396;-77
2022/04/11 11:07:25;;;;;;;19.58;5.60;;;;;;;11.95;43.66;101411.28;5046088;28;20087;-77
2022/04/11 11:09:55;;;;;;;13.82;4.70;;;;;;;11.96;45.01;101399.56;5064335;28;20044;-77
2022/04/11 11:12:21;;;;;;;17.45;5.32;;;;;;;12.02;44.07;101405.41;5048919;28;20219;-77
2022/04/11 11:14:46;;;;;;;15.80;4.70;;;;;;;12.12;44.60;101402.03;5042965;28;20087;-77